Time;durP1;ratioP1;P1;durP2;ratioP2;P2;SDS_P1;SDS_P2;PMS_P1;PMS_P2;Temp;Humidity;BMP_temperature;BMP_pressure;BME280_temperature;BME280_humidity;BME280_pressure;Samples;Min_cycle;Max_cycle;Signal;HPM_P1;HPM_P2
2023/10/16 00:02:22;;;;;;;7.47;2.75;;;;;;;7.49;100.00;102325.69;5048745;28;20086;-55
2023/10/16 00:04:48;;;;;;;11.77;3.70;;;;;;;7.48;100.00;102314.31;5035198;28;20117;-54
2023/10/16 00:07:14;;;;;;;7.78;3.10;;;;;;;7.21;100.00;102265.31;5050918;28;20033;-52
2023/10/16 00:09:40;;;;;;;7.43;3.53;;;;;;;7.11;100.00;102246.97;5035274;28;20049;-50
2023/10/16 00:12:07;;;;;;;6.05;3.17;;;;;;;7.34;100.00;102279.34;5035142;28;20036;-55
2023/10/16 00:14:33;;;;;;;8.52;4.13;;;;;;;7.55;100.00;102310.88;5035501;28;20117;-57
2023/10/16 00:16:58;;;;;;;7.97;3.42;;;;;;;7.48;100.00;102306.47;5048773;28;20105;-50
2023/10/16 00:19:24;;;;;;;7.63;3.33;;;;;;;7.52;100.00;102296.88;5035558;28;20034;-52
2023/10/16 00:21:52;;;;;;;12.88;3.65;;;;;;;7.07;100.00;102238.22;5035096;28;20068;-50
2023/10/16 00:24:18;;;;;;;9.27;3.30;;;;;;;7.66;100.00;102313.50;5035110;28;20048;-59
2023/10/16 00:26:49;;;;;;;10.30;4.15;;;;;;;7.43;100.00;102282.00;5034977;28;20116;-54
2023/10/16 00:29:35;;;;;;;5.70;3.05;;;;;;;7.63;100.00;102293.41;5034075;28;20041;-51
2023/10/16 00:32:07;;;;;;;9.43;3.30;;;;;;;7.69;100.00;102306.53;5033549;28;20064;-53
2023/10/16 00:34:32;;;;;;;8.02;3.20;;;;;;;7.65;100.00;102301.28;5033409;28;20045;-53
2023/10/16 00:36:57;;;;;;;9.10;3.40;;;;;;;7.64;100.00;102307.41;5034463;28;20051;-55
2023/10/16 00:39:28;;;;;;;7.68;3.15;;;;;;;7.52;100.00;102289.91;5033879;28;20037;-52
2023/10/16 00:41:54;;;;;;;5.80;3.20;;;;;;;7.55;100.00;102303.00;5035031;28;20061;-52
2023/10/16 00:44:22;;;;;;;6.43;3.03;;;;;;;7.28;100.00;102271.47;5034448;28;20064;-52
2023/10/16 00:46:50;;;;;;;9.52;3.60;;;;;;;7.36;100.00;102302.06;5034945;28;20058;-55
2023/10/16 00:49:18;;;;;;;7.63;3.17;;;;;;;7.28;100.00;102290.69;5033441;28;20481;-55
2023/10/16 00:51:45;;;;;;;9.85;3.47;;;;;;;7.09;100.00;102275.75;5031485;28;20469;-50
2023/10/16 00:54:18;;;;;;;8.05;3.22;;;;;;;7.11;100.00;102287.13;5050148;28;20038;-57
2023/10/16 00:56:49;;;;;;;8.30;3.08;;;;;;;7.10;100.00;102282.75;5049927;28;20051;-53
2023/10/16 00:59:17;;;;;;;7.40;2.80;;;;;;;6.99;100.00;102275.69;5034498;28;20052;-53
2023/10/16 01:01:46;;;;;;;9.07;2.92;;;;;;;7.00;100.00;102285.31;5033275;28;20033;-55
2023/10/16 01:04:13;;;;;;;4.22;2.70;;;;;;;6.88;100.00;102259.06;5032934;28;20108;-55
2023/10/16 01:06:41;;;;;;;5.78;2.67;;;;;;;6.52;100.00;102210.88;5034217;28;20029;-47
2023/10/16 01:09:12;;;;;;;8.27;3.25;;;;;;;6.87;100.00;102284.38;5032715;28;20046;-50
2023/10/16 01:11:38;;;;;;;7.00;3.20;;;;;;;6.73;100.00;102270.31;5034350;28;20079;-51
2023/10/16 01:14:06;;;;;;;6.93;2.80;;;;;;;6.64;100.00;102263.28;5034124;28;20120;-56
2023/10/16 01:16:32;;;;;;;7.78;3.40;;;;;;;6.29;100.00;102207.25;5034028;28;20048;-58
2023/10/16 01:19:00;;;;;;;10.07;3.00;;;;;;;6.62;100.00;102283.34;5034426;28;20053;-51
2023/10/16 01:21:27;;;;;;;5.97;3.10;;;;;;;6.57;100.00;102273.69;5034186;28;20041;-55
2023/10/16 01:23:52;;;;;;;6.80;3.47;;;;;;;6.10;100.00;102206.22;5049574;28;20056;-56
2023/10/16 01:26:18;;;;;;;7.20;3.30;;;;;;;6.05;100.00;102207.94;5032533;28;20049;-54
2023/10/16 01:28:44;;;;;;;6.70;3.10;;;;;;;6.35;100.00;102259.59;5033863;28;20034;-51
2023/10/16 01:31:09;;;;;;;7.57;3.15;;;;;;;6.25;100.00;102257.78;5033600;28;20057;-53
2023/10/16 01:33:35;;;;;;;6.82;3.13;;;;;;;6.34;100.00;102277.88;5033848;28;20128;-55
2023/10/16 01:36:00;;;;;;;7.38;3.38;;;;;;;6.21;100.00;102267.34;5033737;28;20515;-51
2023/10/16 01:38:27;;;;;;;8.45;3.38;;;;;;;6.21;100.00;102259.50;5033760;28;20042;-56
2023/10/16 01:41:39;;;;;;;9.25;3.22;;;;;;;6.25;100.00;102264.75;5032037;28;20033;-56
2023/10/16 01:43:43;;;;;;;8.77;3.20;;;;;;;5.91;100.00;102209.59;5028032;28;20389;-57
2023/10/16 01:46:12;;;;;;;5.68;3.03;;;;;;;6.13;100.00;102231.53;5033720;28;20043;-54
2023/10/16 01:48:42;;;;;;;8.63;3.92;;;;;;;6.30;100.00;102263.06;5048554;28;20083;-53
2023/10/16 01:51:19;;;;;;;7.25;3.15;;;;;;;5.85;100.00;102192.94;5033686;28;20099;-54
2023/10/16 01:53:47;;;;;;;9.88;3.35;;;;;;;6.16;100.00;102266.41;5033431;28;20068;-52
2023/10/16 01:56:13;;;;;;;9.45;3.38;;;;;;;5.77;100.00;102203.34;5033418;28;20556;-56
2023/10/16 01:58:39;;;;;;;8.75;3.15;;;;;;;6.08;100.00;102262.00;5031795;28;20116;-56
2023/10/16 02:01:04;;;;;;;10.13;3.58;;;;;;;6.04;100.00;102255.84;5032381;28;20104;-52
2023/10/16 02:03:30;;;;;;;6.07;3.30;;;;;;;6.13;100.00;102265.50;5033246;28;20124;-52
2023/10/16 02:05:55;;;;;;;9.35;3.67;;;;;;;5.69;100.00;102198.03;5033347;28;20185;-54
2023/10/16 02:08:21;;;;;;;8.27;3.50;;;;;;;6.07;100.00;102241.97;5033242;28;20061;-55
2023/10/16 02:10:48;;;;;;;9.73;3.95;;;;;;;5.75;100.00;102188.50;5033026;28;20038;-53
2023/10/16 02:13:13;;;;;;;7.03;3.05;;;;;;;5.76;100.00;102206.78;5032968;28;20029;-52
2023/10/16 02:15:39;;;;;;;8.52;3.08;;;;;;;5.64;100.00;102160.53;5031518;28;20033;-56
2023/10/16 02:18:06;;;;;;;12.27;3.40;;;;;;;6.14;100.00;102243.75;5033075;28;20521;-54
2023/10/16 02:20:36;;;;;;;6.32;3.30;;;;;;;6.18;100.00;102251.63;5031613;28;20140;-55
2023/10/16 02:23:03;;;;;;;7.35;3.65;;;;;;;6.11;100.00;102251.56;5033029;28;20063;-54
2023/10/16 02:25:29;;;;;;;7.82;3.03;;;;;;;6.11;100.00;102247.22;5032665;28;20048;-52
2023/10/16 02:27:54;;;;;;;7.20;3.67;;;;;;;6.10;100.00;102247.22;5032948;28;20041;-51
2023/10/16 02:32:53;;;;;;;11.50;3.47;;;;;;;6.13;100.00;102247.22;5029966;28;20049;-55
2023/10/16 02:35:21;;;;;;;8.30;3.42;;;;;;;6.19;100.00;102237.69;5032614;28;20033;-51
2023/10/16 02:37:53;;;;;;;8.10;3.90;;;;;;;6.11;100.00;102228.91;5032545;28;20120;-56
2023/10/16 02:40:20;;;;;;;6.38;3.65;;;;;;;5.71;100.00;102174.53;5032931;28;20040;-54
2023/10/16 02:42:55;;;;;;;6.20;2.83;;;;;;;5.75;100.00;102180.66;5032540;28;20057;-54
2023/10/16 02:45:26;;;;;;;5.75;3.10;;;;;;;6.10;100.00;102249.81;5032513;28;20499;-54
2023/10/16 02:47:53;;;;;;;13.38;4.13;;;;;;;6.04;100.00;102234.09;5031967;28;20033;-56
2023/10/16 02:50:19;;;;;;;7.35;3.80;;;;;;;5.88;100.00;102216.50;5030418;28;20492;-55
2023/10/16 02:52:52;;;;;;;7.57;3.55;;;;;;;5.58;100.00;102155.25;5032545;28;20038;-55
2023/10/16 02:55:18;;;;;;;8.10;3.13;;;;;;;6.04;100.00;102240.16;5032361;28;20033;-51
2023/10/16 02:57:43;;;;;;;7.57;3.38;;;;;;;5.51;100.00;102136.91;5032437;28;20327;-54
2023/10/16 03:03:09;;;;;;;6.45;3.40;;;;;;;5.62;100.00;102164.88;5014345;28;20041;-50
2023/10/16 03:05:35;;;;;;;10.52;4.20;;;;;;;6.05;100.00;102239.31;5030850;28;20061;-59
2023/10/16 03:08:00;;;;;;;7.75;3.38;;;;;;;6.04;100.00;102221.03;5030705;28;20033;-55
2023/10/16 03:10:26;;;;;;;9.63;3.70;;;;;;;6.03;100.00;102227.97;5031990;28;20107;-55
2023/10/16 03:12:52;;;;;;;9.73;3.90;;;;;;;5.83;100.00;102197.28;5031854;28;20125;-54
2023/10/16 03:15:26;;;;;;;6.95;3.58;;;;;;;5.77;100.00;102171.97;5047100;28;20072;-57
2023/10/16 03:17:55;;;;;;;9.95;3.45;;;;;;;6.05;100.00;102225.38;5046481;28;20116;-52
2023/10/16 03:20:43;;;;;;;6.82;3.28;;;;;;;6.08;100.00;102234.13;5032290;28;20124;-58
2023/10/16 03:23:07;;;;;;;7.38;3.53;;;;;;;6.11;100.00;102228.03;5042573;28;20046;-56
2023/10/16 03:25:54;;;;;;;11.50;3.92;;;;;;;6.15;100.00;102230.69;5031969;28;20038;-51
2023/10/16 03:28:19;;;;;;;9.82;3.78;;;;;;;6.19;100.00;102223.72;5031308;28;20084;-56
2023/10/16 03:30:44;;;;;;;8.23;3.67;;;;;;;5.88;100.00;102157.28;5031878;28;20117;-53
2023/10/16 03:33:14;;;;;;;5.30;3.30;;;;;;;6.35;100.00;102225.59;5031660;28;20049;-52
2023/10/16 03:35:46;;;;;;;9.50;4.07;;;;;;;6.39;100.00;102218.66;5031758;28;20095;-54
2023/10/16 03:38:20;;;;;;;7.88;3.90;;;;;;;6.14;100.00;102166.19;5028865;28;20064;-58
2023/10/16 03:40:50;;;;;;;8.73;3.83;;;;;;;6.62;100.00;102224.91;5046455;28;20041;-58
2023/10/16 03:43:17;;;;;;;11.05;4.50;;;;;;;6.31;100.00;102149.72;5031917;28;20044;-57
2023/10/16 03:45:43;;;;;;;7.88;3.30;;;;;;;6.36;100.00;102156.75;5031863;28;20033;-52
2023/10/16 03:48:11;;;;;;;8.60;3.80;;;;;;;6.60;100.00;102197.84;5031491;28;20041;-53
2023/10/16 03:50:38;;;;;;;13.13;5.13;;;;;;;6.52;100.00;102178.63;5030506;28;20477;-57
2023/10/16 03:53:07;;;;;;;5.25;2.83;;;;;;;6.69;100.00;102222.31;5031516;28;20042;-55
2023/10/16 03:55:47;;;;;;;6.93;3.15;;;;;;;6.64;100.00;102225.78;5030073;28;20025;-57
2023/10/16 03:58:12;;;;;;;9.63;3.92;;;;;;;6.59;100.00;102215.31;5031804;28;20101;-53
2023/10/16 04:00:52;;;;;;;7.18;3.38;;;;;;;6.17;100.00;102158.38;5031578;28;20108;-55
2023/10/16 04:03:21;;;;;;;7.07;3.85;;;;;;;6.47;100.00;102212.63;5031229;28;20504;-53
2023/10/16 04:05:47;;;;;;;7.00;3.35;;;;;;;6.31;100.00;102186.34;5047008;28;20120;-56
2023/10/16 04:08:14;;;;;;;8.52;4.45;;;;;;;6.43;100.00;102209.94;5031784;28;20068;-54
2023/10/16 04:10:46;;;;;;;8.25;3.95;;;;;;;6.04;100.00;102153.91;5031719;28;20033;-54
2023/10/16 04:13:14;;;;;;;11.93;4.55;;;;;;;6.36;100.00;102210.78;5029911;28;20393;-55
2023/10/16 04:20:57;;;;;;;12.27;3.63;;;;;;;6.39;100.00;102206.44;5044580;28;20049;-51
2023/10/16 04:31:45;;;;;;;7.35;3.78;;;;;;;6.19;100.00;102122.66;5047701;28;20072;-54
2023/10/16 04:37:40;;;;;;;5.03;3.83;;;;;;;6.36;100.00;102127.13;5049238;28;20045;-53
2023/10/16 04:47:42;;;;;;;9.65;4.03;;;;;;;7.13;100.00;102188.47;5033078;28;20049;-55
2023/10/16 04:50:09;;;;;;;11.50;3.95;;;;;;;7.29;100.00;102203.41;5034468;28;20063;-53
2023/10/16 05:20:34;;;;;;;8.68;3.42;;;;;;;7.49;100.00;102129.19;4963731;28;20440;-53
2023/10/16 06:15:07;;;;;;;9.93;5.80;;;;;;;7.82;100.00;102179.84;4993363;28;20049;-59
2023/10/16 06:17:32;;;;;;;9.60;6.20;;;;;;;7.80;100.00;102173.75;4993800;28;20038;-47
2023/10/16 06:19:58;;;;;;;10.98;5.78;;;;;;;7.45;100.00;102103.84;5014624;28;20496;-57
2023/10/16 06:22:23;;;;;;;11.88;5.88;;;;;;;7.46;100.00;102105.59;5008645;28;20045;-51
2023/10/16 06:24:48;;;;;;;16.02;6.88;;;;;;;7.87;100.00;102175.50;5046672;28;20045;-51
2023/10/16 06:27:20;;;;;;;11.65;6.93;;;;;;;7.43;100.00;102092.50;5026442;28;20435;-57
2023/10/16 06:29:53;;;;;;;13.23;6.88;;;;;;;7.61;100.00;102130.09;5011546;28;20374;-52
2023/10/16 06:32:25;;;;;;;11.55;6.30;;;;;;;8.03;100.00;102186.84;5027055;28;20042;-52
2023/10/16 06:35:00;;;;;;;10.10;6.50;;;;;;;7.68;100.00;102123.06;5011267;28;20037;-53
2023/10/16 06:37:28;;;;;;;10.95;6.07;;;;;;;7.51;100.00;102081.16;5011113;28;20034;-55
2023/10/16 06:39:54;;;;;;;12.60;6.35;;;;;;;8.16;100.00;102193.84;5007356;28;20030;-51
2023/10/16 06:42:20;;;;;;;12.68;6.00;;;;;;;8.19;100.00;102217.44;5010414;28;20501;-51
2023/10/16 06:44:53;;;;;;;11.98;6.93;;;;;;;8.21;100.00;102192.09;5016572;28;20037;-55
2023/10/16 06:47:47;;;;;;;12.93;6.43;;;;;;;8.18;100.00;102186.84;5030635;28;20145;-56
2023/10/16 06:52:55;;;;;;;8.80;5.78;;;;;;;8.38;100.00;102198.19;5016645;28;20077;-52
2023/10/16 06:55:21;;;;;;;9.52;5.45;;;;;;;8.01;100.00;102135.28;5029650;28;20041;-51
2023/10/16 06:57:47;;;;;;;7.68;5.85;;;;;;;8.10;100.00;102143.16;5036705;28;20034;-55
2023/10/16 07:00:22;;;;;;;13.48;6.10;;;;;;;8.02;100.00;102122.19;5019757;28;20037;-54
2023/10/16 07:02:54;;;;;;;11.32;5.97;;;;;;;8.51;100.00;102193.81;5028219;28;20033;-59
2023/10/16 07:05:23;;;;;;;10.95;5.72;;;;;;;8.59;100.00;102201.66;5017254;28;20169;-50
2023/10/16 07:07:56;;;;;;;11.02;6.05;;;;;;;8.63;100.00;102211.28;5015186;28;20029;-50
2023/10/16 07:10:22;;;;;;;13.10;6.05;;;;;;;8.63;100.00;102199.03;5021264;28;20033;-49
2023/10/16 07:13:00;;;;;;;14.25;6.97;;;;;;;8.27;100.00;102136.09;5021248;28;20040;-52
2023/10/16 07:15:29;;;;;;;14.48;6.70;;;;;;;8.62;100.00;102188.53;5030768;28;20029;-50
2023/10/16 07:17:55;;;;;;;16.52;7.10;;;;;;;8.37;100.00;102141.38;5047100;28;20109;-47
2023/10/16 07:23:12;;;;;;;9.88;6.53;;;;;;;8.48;100.00;102133.47;5001837;28;20112;-48
2023/10/16 07:25:47;;;;;;;10.73;6.40;;;;;;;8.69;100.00;102157.03;5011907;28;20199;-48
2023/10/16 07:28:13;;;;;;;11.00;6.82;;;;;;;8.99;100.00;102196.25;5010739;28;20500;-49
2023/10/16 07:30:42;;;;;;;8.88;5.85;;;;;;;8.95;100.00;102176.16;5010572;28;20046;-50
2023/10/16 07:33:15;;;;;;;13.50;6.68;;;;;;;9.10;100.00;102196.22;5025163;28;20041;-51
2023/10/16 07:35:47;;;;;;;11.05;6.03;;;;;;;9.16;100.00;102184.81;5008051;28;20033;-51
2023/10/16 07:38:18;;;;;;;11.30;7.10;;;;;;;9.26;100.00;102190.00;5011247;28;20437;-51
2023/10/16 07:40:45;;;;;;;11.77;6.88;;;;;;;9.34;100.00;102196.09;5010225;28;20044;-50
2023/10/16 07:43:10;;;;;;;8.95;5.93;;;;;;;9.07;100.00;102138.47;5011914;28;20029;-50
2023/10/16 07:45:37;;;;;;;14.48;6.70;;;;;;;9.47;100.00;102205.66;5011764;28;20034;-46
2023/10/16 07:48:17;;;;;;;9.73;6.07;;;;;;;9.55;100.00;102198.59;5011869;28;20038;-49
2023/10/16 07:50:43;;;;;;;8.53;6.43;;;;;;;9.32;100.00;102133.91;5012134;28;20042;-47
2023/10/16 07:53:08;;;;;;;9.93;6.65;;;;;;;9.70;100.00;102201.97;5029759;28;20333;-47
2023/10/16 07:55:40;;;;;;;8.02;5.97;;;;;;;9.46;100.00;102132.94;5031492;28;20040;-49
2023/10/16 07:58:15;;;;;;;7.90;5.65;;;;;;;9.95;100.00;102214.09;5032043;28;20041;-50
2023/10/16 08:00:59;;;;;;;12.15;6.70;;;;;;;10.04;100.00;102204.34;5032515;28;20045;-50
2023/10/16 08:03:26;;;;;;;10.65;5.82;;;;;;;10.09;100.00;102193.78;5012169;28;20396;-49
2023/10/16 08:05:51;;;;;;;12.05;6.10;;;;;;;10.10;100.00;102185.88;5028618;28;20029;-49
2023/10/16 08:08:25;;;;;;;10.18;5.28;;;;;;;9.82;100.00;102133.53;5034538;28;20163;-49
2023/10/16 08:10:52;;;;;;;8.98;5.32;;;;;;;10.09;100.00;102192.03;5034516;28;20033;-51
2023/10/16 08:13:18;;;;;;;11.15;4.80;;;;;;;10.23;100.00;102194.56;5035254;28;20029;-54
2023/10/16 08:15:51;;;;;;;10.90;5.70;;;;;;;9.98;100.00;102146.50;5033826;28;20033;-52
2023/10/16 08:18:25;;;;;;;5.88;4.32;;;;;;;10.40;100.00;102207.56;5035319;28;20038;-47
2023/10/16 08:21:00;;;;;;;7.53;4.25;;;;;;;10.08;100.00;102137.66;5034188;28;20468;-47
2023/10/16 08:23:34;;;;;;;9.32;3.58;;;;;;;10.20;100.00;102131.44;5033707;28;20508;-49
2023/10/16 08:26:14;;;;;;;7.82;4.18;;;;;;;10.33;100.00;102129.56;5035306;28;20041;-48
2023/10/16 08:28:45;;;;;;;7.70;4.13;;;;;;;10.58;100.00;102150.31;5048951;28;20069;-50
2023/10/16 08:31:23;;;;;;;9.03;4.33;;;;;;;10.62;100.00;102133.56;5035069;28;20512;-47
2023/10/16 08:33:55;;;;;;;5.80;3.40;;;;;;;11.00;100.00;102196.34;5035150;28;20038;-47
2023/10/16 08:36:22;;;;;;;8.20;3.75;;;;;;;11.00;100.00;102169.13;5034644;28;20037;-48
2023/10/16 08:38:57;;;;;;;7.50;3.65;;;;;;;10.81;100.00;102123.69;5033591;28;20437;-48
2023/10/16 08:41:42;;;;;;;7.32;3.75;;;;;;;11.12;100.00;102161.06;5047008;28;20033;-51
2023/10/16 08:44:17;;;;;;;5.82;3.40;;;;;;;11.42;100.00;102186.09;5048390;28;20459;-52
2023/10/16 08:49:22;;;;;;;5.15;3.05;;;;;;;11.36;100.00;102131.69;5049863;28;20052;-48
2023/10/16 08:51:49;;;;;;;4.05;2.70;;;;;;;11.44;100.00;102126.31;5032927;28;20030;-50
2023/10/16 08:57:00;;;;;;;4.82;2.33;;;;;;;11.37;100.00;102077.22;5033972;28;20661;-48
2023/10/16 08:59:25;;;;;;;5.40;2.70;;;;;;;11.80;100.00;102128.38;5050303;28;20041;-51
2023/10/16 09:01:53;;;;;;;2.53;2.00;;;;;;;12.15;100.00;102175.25;5033482;28;20164;-52
2023/10/16 09:04:18;;;;;;;2.75;2.17;;;;;;;11.92;100.00;102117.63;5034691;28;20049;-52
2023/10/16 09:06:43;;;;;;;5.15;2.10;;;;;;;12.03;100.00;102118.28;5049982;28;20037;-51
2023/10/16 09:09:13;;;;;;;3.92;1.83;;;;;;;12.49;100.00;102172.91;5034467;28;20432;-48
2023/10/16 09:11:43;;;;;;;5.75;2.13;;;;;;;12.33;100.00;102140.63;5033759;28;20025;-50
2023/10/16 09:14:13;;;;;;;5.82;2.17;;;;;;;12.31;100.00;102130.09;5033377;28;20384;-53
2023/10/16 09:16:43;;;;;;;3.65;1.90;;;;;;;12.64;100.00;102186.66;5032177;28;20120;-48
2023/10/16 09:19:11;;;;;;;6.35;2.40;;;;;;;12.47;100.00;102151.78;5032739;28;20049;-49
2023/10/16 09:21:39;;;;;;;4.72;2.70;;;;;;;12.84;100.00;102212.72;5033776;28;20504;-51
2023/10/16 09:24:05;;;;;;;1.80;1.05;;;;;;;12.76;100.00;102204.91;5033449;28;20067;-50
2023/10/16 09:26:32;;;;;;;3.05;1.55;;;;;;;12.52;100.00;102173.69;5033364;28;20040;-49
2023/10/16 09:29:14;;;;;;;2.90;1.83;;;;;;;12.65;100.00;102153.19;5034251;28;20041;-48
2023/10/16 09:31:47;;;;;;;1.10;0.70;;;;;;;13.04;100.00;102205.25;5034296;28;20472;-50
2023/10/16 09:34:17;;;;;;;2.30;1.10;;;;;;;13.12;100.00;102220.97;5033810;28;20168;-47
2023/10/16 09:37:07;;;;;;;2.83;0.95;;;;;;;13.12;100.00;102235.06;5033783;28;20456;-51
2023/10/16 09:39:35;;;;;;;2.85;1.10;;;;;;;12.82;100.00;102170.44;5033720;28;20134;-51
2023/10/16 09:42:11;;;;;;;2.17;1.10;;;;;;;13.01;100.00;102210.59;5033899;28;20068;-53
2023/10/16 09:44:56;;;;;;;2.60;1.00;;;;;;;13.30;100.00;102223.22;5033649;28;20033;-50
2023/10/16 09:47:26;;;;;;;2.90;1.35;;;;;;;13.35;100.00;102216.94;5033621;28;20057;-54
2023/10/16 09:49:58;;;;;;;1.98;0.95;;;;;;;13.62;100.00;102225.16;5033628;28;20037;-48
2023/10/16 09:52:24;;;;;;;1.98;1.10;;;;;;;13.67;100.00;102212.66;5033680;28;20065;-50
2023/10/16 09:54:51;;;;;;;3.40;1.52;;;;;;;13.67;100.00;102213.53;5033580;28;20080;-50
2023/10/16 09:57:26;;;;;;;3.15;0.95;;;;;;;13.40;100.00;102163.91;5033260;28;20477;-49
2023/10/16 09:59:54;;;;;;;4.72;0.90;;;;;;;13.38;100.00;102139.28;5033644;28;20044;-47
2023/10/16 10:02:25;;;;;;;3.22;0.73;;;;;;;13.46;100.00;102158.47;5049036;28;20037;-48
2023/10/16 10:05:01;;;;;;;2.97;0.68;;;;;;;13.84;100.00;102211.38;5033450;28;20033;-50
2023/10/16 10:07:38;;;;;;;2.65;0.63;;;;;;;13.67;100.00;102189.72;5033492;28;20481;-48
2023/10/16 10:12:52;;;;;;;2.55;1.15;;;;;;;13.73;100.00;102171.06;5032480;28;20048;-49
2023/10/16 10:15:38;;;;;;;1.83;0.50;;;;;;;14.16;100.00;102238.81;5033242;28;20032;-47
2023/10/16 10:20:48;;;;;;;2.67;0.98;;;;;;;14.26;100.00;102227.09;5033131;28;20052;-47
2023/10/16 10:23:15;;;;;;;1.58;0.70;;;;;;;14.00;100.00;102170.38;5032370;28;20045;-46
2023/10/16 10:25:41;;;;;;;1.80;0.50;;;;;;;14.42;100.00;102221.38;5048494;28;20083;-47
2023/10/16 10:28:28;;;;;;;1.75;0.60;;;;;;;13.86;100.00;102095.75;5048555;28;20504;-49
2023/10/16 10:31:04;;;;;;;2.75;0.70;;;;;;;14.58;100.00;102185.63;5031513;28;20042;-45
2023/10/16 10:33:42;;;;;;;2.90;1.02;;;;;;;14.85;100.00;102185.78;5047314;28;20048;-50
2023/10/16 10:36:39;;;;;;;2.20;1.20;;;;;;;15.34;100.00;102248.84;5032773;28;20120;-49
2023/10/16 10:39:20;;;;;;;3.00;0.77;;;;;;;15.42;100.00;102252.13;5032651;28;20040;-48
2023/10/16 10:41:47;;;;;;;;;;;;;;;15.33;100.00;102253.28;5033504;28;20029;-46
2023/10/16 10:44:14;;;;;;;2.22;0.80;;;;;;;15.28;100.00;102241.06;5032821;28;20028;-49
2023/10/16 10:46:42;;;;;;;2.38;1.10;;;;;;;14.78;100.00;102195.66;5032636;28;20040;-49
2023/10/16 10:49:12;;;;;;;1.80;0.45;;;;;;;14.83;100.00;102243.25;5032337;28;20041;-48
2023/10/16 10:51:44;;;;;;;1.20;0.45;;;;;;;15.13;100.00;102251.22;5032493;28;20041;-46
2023/10/16 10:54:12;;;;;;;1.67;0.52;;;;;;;15.31;100.00;102251.59;5032934;28;20484;-49
2023/10/16 10:56:48;;;;;;;1.20;0.50;;;;;;;14.96;100.00;102191.63;5047698;28;20037;-45
2023/10/16 10:59:39;;;;;;;2.22;0.50;;;;;;;15.30;100.00;102252.50;5047435;28;20040;-45
2023/10/16 11:04:53;;;;;;;3.63;0.93;;;;;;;15.54;100.00;102209.34;5032976;28;19944;-50
2023/10/16 11:07:25;;;;;;;4.13;0.65;;;;;;;16.20;100.00;102246.13;5032113;28;20536;-45
2023/10/16 11:09:56;;;;;;;3.78;1.10;;;;;;;16.48;100.00;102240.75;5032188;28;20492;-45
2023/10/16 11:12:25;;;;;;;3.30;0.93;;;;;;;16.48;100.00;102224.81;5032093;28;20030;-44
2023/10/16 11:14:51;;;;;;;2.83;0.73;;;;;;;16.65;100.00;102246.38;5064419;28;20496;-48
2023/10/16 11:17:34;;;;;;;2.35;0.90;;;;;;;16.61;100.00;102189.78;5032222;28;20136;-49
2023/10/16 11:20:27;;;;;;;2.13;0.70;;;;;;;17.10;100.00;102249.16;5032094;28;20388;-47
2023/10/16 11:22:59;;;;;;;2.17;0.60;;;;;;;17.15;100.00;102194.84;5030612;28;20399;-46
2023/10/16 11:25:30;;;;;;;1.88;0.70;;;;;;;17.82;100.00;102238.38;5030878;28;20045;-44
2023/10/16 11:28:07;;;;;;;1.35;0.50;;;;;;;17.92;100.00;102242.38;5030905;28;20044;-46
2023/10/16 11:30:38;;;;;;;1.20;0.65;;;;;;;17.45;100.00;102200.78;5031657;28;20041;-48
2023/10/16 11:33:04;;;;;;;3.92;0.88;;;;;;;17.61;100.00;102235.69;5033316;28;20044;-45
2023/10/16 11:35:29;;;;;;;1.60;0.52;;;;;;;17.46;100.00;102218.47;5036849;28;20136;-48
2023/10/16 11:38:12;;;;;;;2.45;0.73;;;;;;;17.19;100.00;102179.66;5038627;28;20063;-47
2023/10/16 11:40:42;;;;;;;2.60;1.05;;;;;;;16.67;100.00;102165.63;5038586;28;20064;-48
2023/10/16 11:43:11;;;;;;;1.35;0.65;;;;;;;16.84;100.00;102228.84;5052998;28;20065;-46
2023/10/16 11:45:42;;;;;;;1.77;0.68;;;;;;;16.92;100.00;102229.44;5038105;28;20034;-46
2023/10/16 11:50:50;;;;;;;4.15;1.30;;;;;;;16.21;100.00;102147.78;5036944;28;20519;-48
2023/10/16 11:53:23;;;;;;;3.15;0.70;;;;;;;16.24;100.00;102206.13;5070488;28;20441;-47
2023/10/16 11:55:49;;;;;;;2.95;1.00;;;;;;;16.01;100.00;102195.41;5038371;28;20039;-46
2023/10/16 11:58:15;;;;;;;2.72;0.85;;;;;;;15.65;100.00;102148.81;5036827;28;20033;-47
2023/10/16 12:00:49;;;;;;;1.75;0.68;;;;;;;16.14;100.00;102201.19;5038440;28;20029;-48
2023/10/16 12:03:14;;;;;;;2.67;1.27;;;;;;;15.55;100.00;102150.06;5038023;28;20063;-47
2023/10/16 12:05:43;;;;;;;2.13;0.80;;;;;;;15.41;100.00;102121.25;5038435;28;20049;-45
2023/10/16 12:08:09;;;;;;;2.45;0.70;;;;;;;15.54;100.00;102129.72;5053778;28;20045;-44
2023/10/16 12:10:37;;;;;;;2.45;0.98;;;;;;;15.34;100.00;102127.69;5038134;28;20065;-48
2023/10/16 12:13:03;;;;;;;3.70;0.80;;;;;;;16.01;100.00;102178.59;5038555;28;20033;-46
2023/10/16 12:15:29;;;;;;;3.63;0.70;;;;;;;15.96;100.00;102176.13;5038481;28;20087;-48
2023/10/16 12:17:55;;;;;;;1.75;0.75;;;;;;;15.86;100.00;102113.59;5053714;28;20045;-51
2023/10/16 12:20:27;;;;;;;2.30;0.63;;;;;;;16.40;100.00;102190.53;5038376;28;20041;-50
2023/10/16 12:22:53;;;;;;;3.05;0.80;;;;;;;16.51;100.00;102192.78;5038300;28;20164;-48
2023/10/16 12:25:21;;;;;;;3.22;0.80;;;;;;;16.33;100.00;102194.31;5053500;28;20663;-50
2023/10/16 12:27:47;;;;;;;2.78;0.70;;;;;;;16.16;100.00;102186.06;5038309;28;20044;-47
2023/10/16 12:30:13;;;;;;;1.70;0.70;;;;;;;15.72;100.00;102121.16;5038089;28;20042;-47
2023/10/16 12:32:39;;;;;;;4.15;0.75;;;;;;;15.60;100.00;102126.88;5038489;28;20076;-45
2023/10/16 12:35:08;;;;;;;1.58;0.80;;;;;;;15.97;100.00;102188.44;5038157;28;20052;-47
2023/10/16 12:37:34;;;;;;;1.92;0.77;;;;;;;15.84;100.00;102115.44;5070148;28;20033;-46
2023/10/16 12:39:59;;;;;;;2.33;0.88;;;;;;;15.99;100.00;102106.97;5037952;28;20503;-47
2023/10/16 12:42:24;;;;;;;2.75;0.60;;;;;;;15.82;100.00;102111.97;5038233;28;20038;-49
2023/10/16 12:44:50;;;;;;;4.68;1.00;;;;;;;15.85;100.00;102098.56;5036514;28;20033;-47
2023/10/16 12:47:15;;;;;;;4.00;1.30;;;;;;;16.39;100.00;102171.97;5034846;28;20117;-49
2023/10/16 12:49:41;;;;;;;2.30;0.75;;;;;;;16.44;100.00;102162.03;5034913;28;20042;-46
2023/10/16 12:52:07;;;;;;;4.35;0.90;;;;;;;15.98;100.00;102105.22;5034864;28;20025;-46
2023/10/16 12:54:32;;;;;;;2.85;0.63;;;;;;;15.94;100.00;102185.91;5033721;28;20040;-47
2023/10/16 12:56:58;;;;;;;1.80;0.75;;;;;;;15.77;100.00;102162.56;5034809;28;20037;-49
2023/10/16 12:59:27;;;;;;;3.17;0.82;;;;;;;15.68;100.00;102164.66;5034715;28;20041;-49
2023/10/16 13:01:52;;;;;;;1.63;0.70;;;;;;;15.23;100.00;102120.03;5033648;28;20025;-50
2023/10/16 13:04:19;;;;;;;3.33;0.60;;;;;;;15.08;100.00;102172.72;5034726;28;20491;-51
2023/10/16 13:06:44;;;;;;;3.83;0.90;;;;;;;14.98;100.00;102158.84;5034656;28;20037;-47
2023/10/16 13:09:18;;;;;;;3.38;0.80;;;;;;;14.63;100.00;102124.53;5034462;28;20037;-50
2023/10/16 13:11:45;;;;;;;10.93;1.00;;;;;;;14.76;100.00;102164.81;5034627;28;20045;-47
2023/10/16 13:14:13;;;;;;;2.03;0.57;;;;;;;14.64;100.00;102158.09;5034555;28;20109;-47
2023/10/16 13:16:42;;;;;;;1.15;0.60;;;;;;;14.28;100.00;102072.53;5034500;28;20045;-48
2023/10/16 13:19:10;;;;;;;1.77;0.65;;;;;;;14.62;100.00;102149.34;5034171;28;20056;-45
2023/10/16 13:21:41;;;;;;;2.00;0.70;;;;;;;14.27;100.00;102155.56;5034276;28;20041;-46
2023/10/16 13:24:11;;;;;;;2.42;0.63;;;;;;;13.98;100.00;102152.81;5033008;28;20037;-52
2023/10/16 13:26:37;;;;;;;3.92;1.05;;;;;;;13.06;100.00;102022.81;5034255;28;20394;-47
2023/10/16 13:29:10;;;;;;;3.50;0.80;;;;;;;13.40;100.00;102087.22;5049548;28;20030;-47
2023/10/16 13:31:36;;;;;;;1.17;0.60;;;;;;;13.65;100.00;102141.28;5034187;28;20053;-46
2023/10/16 13:34:03;;;;;;;2.63;0.90;;;;;;;13.43;100.00;102109.16;5033865;28;20037;-48
2023/10/16 13:36:34;;;;;;;2.08;0.60;;;;;;;13.35;100.00;102103.22;5034128;28;20428;-49
2023/10/16 13:38:59;;;;;;;;;;;;;;;13.70;100.00;102139.38;5034293;28;20100;-44
2023/10/16 13:41:27;;;;;;;2.77;0.80;;;;;;;13.70;100.00;102143.81;5033665;28;19921;-47
2023/10/16 13:43:55;;;;;;;2.92;1.00;;;;;;;13.49;100.00;102138.13;5048701;28;20284;-47